createdAt,value
2022-11-29T00:01:16.210Z,43.97
2022-11-29T00:03:43.542Z,43.38
2022-11-29T00:06:13.615Z,43.92
2022-11-29T00:08:41.450Z,45.03
2022-11-29T00:11:13.507Z,47.33
2022-11-29T00:13:40.756Z,49.95
2022-11-29T00:16:12.545Z,50.88
2022-11-29T00:18:39.812Z,52.55
2022-11-29T00:21:08.042Z,48.42
2022-11-29T00:23:35.902Z,46.65
2022-11-29T00:26:04.151Z,45.67
2022-11-29T00:28:31.391Z,43.33
2022-11-29T00:30:58.745Z,46.80
2022-11-29T00:33:26.047Z,46.90
2022-11-29T00:35:53.273Z,45.10
2022-11-29T00:38:20.492Z,46.10
2022-11-29T00:40:51.758Z,44.03
2022-11-29T00:43:19.141Z,47.15
2022-11-29T00:45:46.399Z,47.05
2022-11-29T00:48:13.714Z,43.72
2022-11-29T00:50:40.926Z,43.92
2022-11-29T00:53:08.303Z,45.20
2022-11-29T00:55:35.482Z,44.25
2022-11-29T00:58:02.794Z,48.30
2022-11-29T01:00:29.986Z,45.03
2022-11-29T01:02:57.252Z,48.92
2022-11-29T01:05:24.664Z,44.78
2022-11-29T01:07:51.915Z,44.88
2022-11-29T01:10:19.259Z,45.58
2022-11-29T01:12:46.439Z,47.47
2022-11-29T01:15:13.734Z,47.17
2022-11-29T01:17:41.070Z,47.05
2022-11-29T01:20:09.794Z,45.03
2022-11-29T01:22:37.043Z,47.00
2022-11-29T01:25:05.212Z,50.03
2022-11-29T01:27:32.920Z,46.97
2022-11-29T01:30:00.149Z,47.92
2022-11-29T01:32:27.440Z,50.20
2022-11-29T01:34:54.650Z,46.53
2022-11-29T01:37:21.822Z,51.78
2022-11-29T01:39:49.122Z,47.08
2022-11-29T01:42:16.375Z,49.15
2022-11-29T01:44:46.641Z,47.33
2022-11-29T01:47:14.099Z,48.50
2022-11-29T01:49:46.088Z,46.60
2022-11-29T01:52:24.777Z,49.38
2022-11-29T01:54:53.702Z,48.30
2022-11-29T01:57:21.144Z,46.67
2022-11-29T01:59:53.091Z,46.25
2022-11-29T02:02:27.868Z,45.10
2022-11-29T02:04:58.408Z,41.60
2022-11-29T02:07:25.903Z,49.60
2022-11-29T02:09:53.192Z,41.25
2022-11-29T02:12:30.136Z,45.15
2022-11-29T02:15:00.382Z,44.55
2022-11-29T02:17:36.378Z,47.05
2022-11-29T02:20:10.166Z,44.03
2022-11-29T02:22:53.357Z,42.05
2022-11-29T02:25:23.551Z,41.35
2022-11-29T02:28:09.449Z,44.88
2022-11-29T02:31:12.432Z,39.70
2022-11-29T02:33:45.549Z,42.40
2022-11-29T02:36:15.777Z,40.15
2022-11-29T02:38:54.502Z,45.17
2022-11-29T02:41:28.486Z,39.17
2022-11-29T02:44:14.783Z,40.58
2022-11-29T02:46:50.177Z,41.92
2022-11-29T02:49:36.261Z,37.75
2022-11-29T02:52:07.839Z,41.65
2022-11-29T02:54:38.248Z,40.00
2022-11-29T02:57:12.453Z,41.17
2022-11-29T02:59:42.238Z,36.42
2022-11-29T03:02:21.821Z,40.80
2022-11-29T03:05:08.028Z,40.05
2022-11-29T03:07:35.367Z,39.80
2022-11-29T03:10:06.106Z,42.55
2022-11-29T03:12:40.078Z,41.78
2022-11-29T03:15:13.202Z,41.63
2022-11-29T03:17:49.532Z,43.17
2022-11-29T03:20:29.082Z,39.40
2022-11-29T03:23:20.081Z,39.70
2022-11-29T03:25:56.654Z,38.35
2022-11-29T03:28:28.025Z,38.00
2022-11-29T03:31:18.331Z,37.80
2022-11-29T03:33:56.667Z,35.40
2022-11-29T03:36:36.227Z,38.90
2022-11-29T03:39:08.330Z,37.90
2022-11-29T03:41:44.628Z,33.67
2022-11-29T03:44:11.886Z,34.53
2022-11-29T03:46:44.856Z,35.67
2022-11-29T03:49:17.175Z,34.72
2022-11-29T03:51:56.684Z,31.17
2022-11-29T03:54:35.144Z,32.58
2022-11-29T03:57:02.488Z,33.08
2022-11-29T03:59:59.064Z,29.05
2022-11-29T04:02:37.314Z,32.58
2022-11-29T04:05:04.532Z,34.50
2022-11-29T04:07:35.237Z,32.63
2022-11-29T04:10:17.830Z,31.52
2022-11-29T04:13:03.793Z,32.45
2022-11-29T04:15:34.054Z,32.78
2022-11-29T04:18:07.441Z,34.42
2022-11-29T04:20:40.403Z,34.65
2022-11-29T04:23:09.330Z,32.38
2022-11-29T04:25:45.776Z,33.25
2022-11-29T04:28:13.053Z,31.75
2022-11-29T04:30:53.058Z,32.05
2022-11-29T04:33:40.594Z,31.23
2022-11-29T04:36:29.271Z,30.85
2022-11-29T04:38:56.488Z,29.80
2022-11-29T04:41:42.082Z,32.10
2022-11-29T04:44:21.598Z,33.63
2022-11-29T04:46:56.199Z,32.10
2022-11-29T04:49:23.434Z,33.63
2022-11-29T04:51:56.994Z,34.42
2022-11-29T04:54:31.644Z,32.78
2022-11-29T04:57:06.778Z,33.92
2022-11-29T04:59:44.736Z,32.60
2022-11-29T05:02:12.020Z,33.90
2022-11-29T05:04:54.509Z,28.67
2022-11-29T05:07:26.058Z,29.63
2022-11-29T05:10:02.517Z,31.73
2022-11-29T05:12:33.887Z,30.23
2022-11-29T05:15:10.255Z,31.38
2022-11-29T05:17:40.547Z,28.23
2022-11-29T05:20:14.374Z,27.00
2022-11-29T05:23:01.682Z,25.70
2022-11-29T05:25:35.414Z,28.77
2022-11-29T05:28:22.864Z,30.13
2022-11-29T05:30:59.161Z,25.65
2022-11-29T05:33:45.379Z,27.80
2022-11-29T05:36:22.288Z,26.70
2022-11-29T05:39:12.814Z,26.63
2022-11-29T05:41:43.032Z,28.65
2022-11-29T05:44:16.430Z,26.90
2022-11-29T05:46:53.928Z,25.05
2022-11-29T05:49:40.013Z,24.45
2022-11-29T05:52:30.177Z,25.58
2022-11-29T05:55:06.543Z,24.42
2022-11-29T05:57:52.670Z,23.42
2022-11-29T06:00:20.364Z,27.02
2022-11-29T06:02:59.957Z,21.90
2022-11-29T06:05:32.515Z,28.42
2022-11-29T06:08:16.824Z,26.98
2022-11-29T06:11:13.438Z,26.85
2022-11-29T06:13:59.398Z,23.42
2022-11-29T06:16:32.915Z,24.45
2022-11-29T06:19:12.615Z,24.48
2022-11-29T06:22:00.010Z,25.98
2022-11-29T06:24:30.403Z,21.23
2022-11-29T06:27:22.531Z,23.58
2022-11-29T06:29:57.416Z,22.75
2022-11-29T06:32:30.734Z,22.58
2022-11-29T06:35:03.280Z,24.60
2022-11-29T06:37:33.262Z,24.20
2022-11-29T06:40:00.747Z,22.35
2022-11-29T06:42:27.947Z,22.23
2022-11-29T06:44:55.352Z,25.02
2022-11-29T06:47:22.732Z,22.10
2022-11-29T06:49:51.974Z,20.65
2022-11-29T06:52:19.206Z,22.98
2022-11-29T06:54:46.786Z,24.83
2022-11-29T06:57:49.947Z,23.83
2022-11-29T07:00:20.267Z,23.13
2022-11-29T07:03:06.756Z,20.95
2022-11-29T07:05:35.512Z,22.85
2022-11-29T07:08:07.559Z,19.98
2022-11-29T07:10:37.044Z,20.58
2022-11-29T07:13:04.502Z,20.30
2022-11-29T07:15:32.173Z,23.50
2022-11-29T07:17:59.391Z,20.45
2022-11-29T07:20:38.671Z,21.15
2022-11-29T07:23:08.942Z,21.98
2022-11-29T07:25:41.967Z,21.42
2022-11-29T07:28:29.462Z,19.67
2022-11-29T07:31:04.613Z,18.83
2022-11-29T07:33:38.005Z,18.63
2022-11-29T07:36:17.311Z,18.52
2022-11-29T07:39:17.620Z,20.77
2022-11-29T07:41:54.757Z,18.35
2022-11-29T07:44:28.462Z,17.52
2022-11-29T07:46:55.702Z,19.08
2022-11-29T07:49:22.919Z,20.25
2022-11-29T07:51:50.282Z,17.17
2022-11-29T07:54:18.852Z,17.75
2022-11-29T07:56:46.384Z,18.27
2022-11-29T07:59:14.567Z,16.98
2022-11-29T08:01:42.301Z,17.25
2022-11-29T08:04:09.688Z,17.73
2022-11-29T08:06:36.933Z,17.58
2022-11-29T08:09:04.654Z,17.77
2022-11-29T08:11:31.974Z,16.40
2022-11-29T08:14:00.062Z,18.23
2022-11-29T08:16:27.295Z,17.45
2022-11-29T08:18:54.825Z,16.77
2022-11-29T08:21:22.448Z,16.33
2022-11-29T08:23:50.434Z,17.63
2022-11-29T08:26:18.375Z,20.60
2022-11-29T08:28:45.802Z,21.65
2022-11-29T08:31:13.976Z,19.08
2022-11-29T08:33:42.338Z,23.25
2022-11-29T08:36:11.249Z,17.40
2022-11-29T08:38:38.499Z,17.27
2022-11-29T08:41:06.920Z,19.55
2022-11-29T08:43:34.610Z,22.48
2022-11-29T08:46:01.922Z,20.15
2022-11-29T08:48:29.177Z,19.52
2022-11-29T08:50:57.110Z,19.50
2022-11-29T08:53:43.096Z,21.20
2022-11-29T08:56:53.515Z,20.58
2022-11-29T08:59:01.812Z,17.15
2022-11-29T09:01:29.588Z,19.52
2022-11-29T09:03:59.657Z,18.38
2022-11-29T09:06:27.865Z,17.30
2022-11-29T09:08:56.340Z,18.92
2022-11-29T09:11:24.335Z,16.77
2022-11-29T09:13:53.356Z,17.90
2022-11-29T09:16:23.839Z,16.50
2022-11-29T09:18:52.331Z,18.33
2022-11-29T09:21:19.958Z,16.85
2022-11-29T09:23:47.488Z,16.85
2022-11-29T09:26:19.144Z,16.17
2022-11-29T09:28:46.826Z,17.17
2022-11-29T09:31:15.124Z,17.13
2022-11-29T09:33:42.426Z,14.82
2022-11-29T09:36:11.109Z,15.30
2022-11-29T09:38:39.276Z,15.20
2022-11-29T09:41:24.644Z,15.73
2022-11-29T09:43:51.831Z,14.90
2022-11-29T09:46:25.301Z,14.80
2022-11-29T09:48:59.831Z,14.13
2022-11-29T09:51:31.923Z,14.73
2022-11-29T09:54:04.854Z,16.35
2022-11-29T09:56:37.856Z,16.08
2022-11-29T09:59:09.715Z,17.20
2022-11-29T10:01:42.117Z,14.25
2022-11-29T10:04:17.652Z,15.32
2022-11-29T10:06:49.052Z,13.70
2022-11-29T10:09:21.631Z,16.30
2022-11-29T10:11:57.756Z,15.38
2022-11-29T10:14:30.890Z,15.52
2022-11-29T10:17:27.979Z,17.58
2022-11-29T10:20:00.280Z,15.45
2022-11-29T10:22:43.226Z,15.13
2022-11-29T10:25:16.682Z,15.32
2022-11-29T10:27:43.935Z,14.63
2022-11-29T10:30:15.238Z,17.02
2022-11-29T10:32:43.256Z,16.58
2022-11-29T10:35:15.681Z,15.85
2022-11-29T10:37:56.347Z,14.38
2022-11-29T10:40:34.236Z,16.02
2022-11-29T10:43:02.038Z,16.25
2022-11-29T10:45:31.081Z,16.55
2022-11-29T10:48:07.001Z,17.33
2022-11-29T10:50:37.772Z,15.50
2022-11-29T10:53:11.417Z,17.45
2022-11-29T10:55:47.748Z,17.40
2022-11-29T10:58:14.957Z,18.35
2022-11-29T11:00:48.067Z,22.45
2022-11-29T11:03:38.727Z,17.67
2022-11-29T11:06:09.014Z,18.33
2022-11-29T11:08:36.776Z,18.65
2022-11-29T11:11:05.246Z,19.23
2022-11-29T11:13:33.744Z,17.15
2022-11-29T11:16:16.743Z,17.05
2022-11-29T11:18:44.552Z,18.65
2022-11-29T11:21:12.623Z,19.40
2022-11-29T11:24:00.128Z,15.43
2022-11-29T11:26:28.081Z,15.38
2022-11-29T11:29:00.195Z,18.63
2022-11-29T11:31:30.514Z,15.23
2022-11-29T11:33:57.864Z,17.90
2022-11-29T11:36:27.224Z,21.52
2022-11-29T11:41:21.671Z,18.70
2022-11-29T11:44:00.015Z,19.08
2022-11-29T11:46:47.793Z,19.98
2022-11-29T11:49:25.676Z,18.65
2022-11-29T11:51:53.041Z,20.38
2022-11-29T11:54:20.730Z,18.65
2022-11-29T11:56:47.960Z,19.50
2022-11-29T11:59:24.357Z,17.98
2022-11-29T12:01:53.444Z,19.10
2022-11-29T12:04:27.387Z,17.25
2022-11-29T12:06:58.924Z,19.10
2022-11-29T12:09:29.195Z,19.83
2022-11-29T12:12:02.363Z,20.45
2022-11-29T12:14:34.977Z,17.45
2022-11-29T12:17:06.394Z,19.55
2022-11-29T12:19:38.182Z,18.63
2022-11-29T12:22:09.324Z,23.73
2022-11-29T12:24:39.898Z,19.33
2022-11-29T12:27:10.560Z,17.83
2022-11-29T12:29:37.801Z,18.95
2022-11-29T12:32:14.147Z,18.52
2022-11-29T12:34:59.899Z,17.58
2022-11-29T12:37:27.095Z,20.38
2022-11-29T12:40:05.733Z,17.55
2022-11-29T12:42:39.487Z,19.27
2022-11-29T12:45:15.719Z,20.13
2022-11-29T12:47:51.467Z,21.05
2022-11-29T12:50:24.886Z,19.23
2022-11-29T12:53:07.140Z,20.98
2022-11-29T12:58:04.509Z,19.13
2022-11-29T13:00:36.316Z,20.42
2022-11-29T13:03:09.458Z,20.05
2022-11-29T13:05:50.564Z,21.40
2022-11-29T13:08:20.735Z,21.80
2022-11-29T13:10:53.723Z,20.52
2022-11-29T13:13:41.393Z,21.52
2022-11-29T13:16:08.697Z,18.10
2022-11-29T13:18:44.318Z,20.23
2022-11-29T13:21:13.905Z,21.45
2022-11-29T13:26:37.725Z,21.23
2022-11-29T13:29:05.369Z,19.02
2022-11-29T13:31:33.746Z,16.65
2022-11-29T13:34:39.650Z,20.88
2022-11-29T13:37:15.916Z,21.88
2022-11-29T13:39:58.047Z,19.13
2022-11-29T13:42:28.076Z,18.98
2022-11-29T13:45:15.189Z,20.95
2022-11-29T13:47:50.062Z,17.58
2022-11-29T13:50:37.312Z,22.33
2022-11-29T13:53:06.882Z,17.45
2022-11-29T13:55:34.313Z,18.42
2022-11-29T13:58:20.940Z,18.85
2022-11-29T14:00:48.195Z,20.52
2022-11-29T14:03:25.935Z,22.73
2022-11-29T14:05:59.417Z,17.13
2022-11-29T14:09:02.118Z,18.90
2022-11-29T14:11:24.882Z,19.98
2022-11-29T14:13:52.875Z,17.98
2022-11-29T14:16:40.318Z,21.50
2022-11-29T14:19:10.532Z,17.15
2022-11-29T14:22:13.348Z,18.02
2022-11-29T14:24:41.097Z,18.63
2022-11-29T14:27:12.601Z,21.00
2022-11-29T14:29:55.119Z,15.32
2022-11-29T14:32:35.161Z,18.15
2022-11-29T14:35:14.226Z,18.85
2022-11-29T14:37:44.954Z,15.43
2022-11-29T14:40:18.588Z,20.00
2022-11-29T14:42:49.046Z,22.30
2022-11-29T14:45:24.257Z,18.10
2022-11-29T14:47:51.543Z,19.70
2022-11-29T14:50:30.471Z,16.42
2022-11-29T14:52:57.945Z,17.60
2022-11-29T14:55:25.179Z,15.70
2022-11-29T14:58:05.727Z,18.08
2022-11-29T15:00:42.229Z,18.33
2022-11-29T15:03:28.450Z,18.50
2022-11-29T15:06:00.003Z,16.02
2022-11-29T15:08:27.186Z,17.10
2022-11-29T15:11:05.790Z,15.65
2022-11-29T15:13:35.144Z,17.13
2022-11-29T15:18:51.335Z,17.45
2022-11-29T15:21:39.726Z,16.10
2022-11-29T15:24:12.829Z,16.75
2022-11-29T15:26:40.165Z,19.25
2022-11-29T15:29:18.707Z,18.67
2022-11-29T15:31:50.012Z,18.88
2022-11-29T15:34:37.520Z,16.52
2022-11-29T15:37:05.117Z,18.13
2022-11-29T15:39:36.866Z,18.17
2022-11-29T15:42:11.736Z,18.10
2022-11-29T15:44:45.549Z,17.30
2022-11-29T15:47:17.502Z,17.70
2022-11-29T15:49:44.865Z,16.45
2022-11-29T15:52:20.043Z,16.73
2022-11-29T15:54:50.602Z,17.13
2022-11-29T15:57:25.839Z,17.63
2022-11-29T16:00:03.110Z,16.85
2022-11-29T16:02:33.746Z,18.33
2022-11-29T16:05:03.702Z,21.65
2022-11-29T16:07:32.685Z,20.23
2022-11-29T16:10:02.489Z,21.08
2022-11-29T16:12:29.674Z,18.27
2022-11-29T16:14:58.331Z,20.23
2022-11-29T16:17:30.541Z,22.42
2022-11-29T16:20:19.365Z,18.15
2022-11-29T16:25:15.036Z,19.02
2022-11-29T16:27:42.337Z,20.42
2022-11-29T16:30:20.771Z,21.35
2022-11-29T16:32:51.930Z,23.90
2022-11-29T16:35:21.692Z,20.23
2022-11-29T16:37:49.110Z,22.33
2022-11-29T16:40:26.787Z,21.77
2022-11-29T16:43:12.819Z,24.98
2022-11-29T16:45:43.927Z,20.95
2022-11-29T16:48:23.109Z,21.85
2022-11-29T16:51:13.820Z,19.45
2022-11-29T16:53:48.479Z,18.75
2022-11-29T16:56:17.358Z,22.15
2022-11-29T16:59:25.612Z,18.33
2022-11-29T17:01:32.890Z,23.85
2022-11-29T17:04:01.016Z,21.52
2022-11-29T17:06:28.795Z,19.08
2022-11-29T17:08:56.996Z,18.45
2022-11-29T17:11:24.210Z,20.35
2022-11-29T17:13:51.656Z,19.38
2022-11-29T17:16:20.329Z,19.38
2022-11-29T17:18:48.064Z,19.55
2022-11-29T17:21:18.553Z,20.40
2022-11-29T17:23:46.019Z,19.70
2022-11-29T17:26:15.339Z,19.27
2022-11-29T17:31:19.956Z,18.80
2022-11-29T17:33:47.350Z,17.80
2022-11-29T17:36:16.581Z,19.05
2022-11-29T17:38:44.611Z,18.40
2022-11-29T17:41:12.917Z,18.67
2022-11-29T17:43:40.588Z,19.05
2022-11-29T17:46:08.652Z,16.30
2022-11-29T17:48:36.033Z,17.13
2022-11-29T17:51:07.007Z,20.77
2022-11-29T17:53:40.733Z,15.38
2022-11-29T17:56:09.173Z,17.45
2022-11-29T17:58:37.158Z,17.70
2022-11-29T18:01:11.708Z,17.63
2022-11-29T18:03:40.301Z,17.48
2022-11-29T18:06:17.752Z,20.80
2022-11-29T18:08:47.766Z,17.67
2022-11-29T18:11:14.992Z,17.45
2022-11-29T18:13:42.317Z,17.23
2022-11-29T18:16:09.490Z,20.08
2022-11-29T18:18:37.168Z,19.02
2022-11-29T18:21:05.380Z,17.10
2022-11-29T18:23:33.883Z,17.10
2022-11-29T18:26:02.331Z,16.40
2022-11-29T18:28:30.122Z,17.40
2022-11-29T18:30:57.548Z,18.77
2022-11-29T18:33:25.055Z,17.45
2022-11-29T18:35:52.323Z,18.70
2022-11-29T18:38:19.552Z,18.73
2022-11-29T18:40:46.900Z,19.70
2022-11-29T18:43:16.394Z,16.77
2022-11-29T18:45:43.714Z,18.23
2022-11-29T18:48:10.987Z,15.52
2022-11-29T18:50:38.260Z,16.15
2022-11-29T18:53:05.448Z,14.07
2022-11-29T18:55:33.188Z,17.60
2022-11-29T18:58:00.442Z,16.23
2022-11-29T19:00:27.628Z,17.20
2022-11-29T19:02:54.886Z,18.63
2022-11-29T19:05:22.125Z,16.83
2022-11-29T19:07:49.440Z,15.25
2022-11-29T19:10:16.749Z,15.25
2022-11-29T19:12:43.942Z,17.08
2022-11-29T19:15:11.323Z,15.35
2022-11-29T19:17:42.947Z,14.13
2022-11-29T19:20:11.154Z,15.40
2022-11-29T19:22:38.468Z,17.23
2022-11-29T19:25:05.871Z,17.20
2022-11-29T19:27:33.194Z,14.65
2022-11-29T19:30:00.408Z,14.00
2022-11-29T19:32:27.629Z,15.25
2022-11-29T19:34:54.862Z,14.35
2022-11-29T19:37:22.234Z,16.80
2022-11-29T19:39:49.496Z,13.82
2022-11-29T19:42:16.736Z,16.58
2022-11-29T19:45:15.449Z,17.15
2022-11-29T19:47:31.099Z,17.05
2022-11-29T19:50:02.362Z,15.38
2022-11-29T19:52:30.091Z,15.75
2022-11-29T19:54:58.128Z,17.60
2022-11-29T19:57:25.354Z,15.07
2022-11-29T19:59:52.575Z,14.30
2022-11-29T20:02:19.835Z,13.98
2022-11-29T20:04:49.620Z,14.35
2022-11-29T20:07:16.931Z,15.50
2022-11-29T20:09:44.456Z,13.52
2022-11-29T20:12:11.984Z,12.57
2022-11-29T20:14:39.273Z,13.50
2022-11-29T20:17:06.604Z,12.90
2022-11-29T20:19:33.812Z,14.77
2022-11-29T20:22:01.061Z,12.60
2022-11-29T20:24:29.748Z,13.80
2022-11-29T20:26:59.448Z,14.40
2022-11-29T20:29:30.391Z,13.73
2022-11-29T20:31:57.705Z,14.65
2022-11-29T20:34:25.268Z,13.95
2022-11-29T20:36:55.911Z,11.93
2022-11-29T20:39:26.262Z,14.90
2022-11-29T20:41:53.444Z,12.10
2022-11-29T20:44:21.898Z,13.18
2022-11-29T20:46:49.298Z,13.63
2022-11-29T20:49:17.933Z,12.85
2022-11-29T20:51:50.906Z,13.85
2022-11-29T20:54:18.877Z,14.20
2022-11-29T20:56:46.118Z,12.18
2022-11-29T20:59:13.463Z,13.23
2022-11-29T21:01:40.687Z,13.30
2022-11-29T21:04:07.932Z,11.60
2022-11-29T21:06:37.450Z,12.88
2022-11-29T21:09:05.124Z,12.90
2022-11-29T21:11:32.807Z,12.40
2022-11-29T21:14:03.797Z,12.63
2022-11-29T21:16:31.973Z,12.82
2022-11-29T21:19:00.790Z,15.55
2022-11-29T21:21:49.869Z,14.20
2022-11-29T21:24:32.576Z,11.68
2022-11-29T21:26:59.950Z,13.82
2022-11-29T21:29:27.293Z,14.13
2022-11-29T21:31:55.191Z,12.57
2022-11-29T21:34:23.043Z,13.27
2022-11-29T21:36:54.208Z,11.45
2022-11-29T21:39:23.171Z,14.25
2022-11-29T21:41:50.338Z,11.95
2022-11-29T21:44:17.511Z,12.30
2022-11-29T21:46:44.771Z,10.75
2022-11-29T21:49:11.994Z,13.13
2022-11-29T21:51:39.236Z,10.90
2022-11-29T21:54:06.488Z,11.25
2022-11-29T21:56:33.714Z,11.30
2022-11-29T21:59:00.908Z,11.85
2022-11-29T22:01:29.223Z,13.45
2022-11-29T22:03:56.473Z,12.57
2022-11-29T22:06:24.400Z,13.50
2022-11-29T22:08:51.667Z,12.38
2022-11-29T22:11:30.795Z,10.45
2022-11-29T22:14:14.552Z,14.27
2022-11-29T22:16:42.313Z,13.90
2022-11-29T22:19:12.224Z,13.38
2022-11-29T22:21:40.609Z,15.35
2022-11-29T22:24:09.064Z,17.02
2022-11-29T22:26:36.399Z,14.82
2022-11-29T22:29:03.914Z,16.25
2022-11-29T22:31:31.208Z,13.20
2022-11-29T22:33:58.601Z,17.23
2022-11-29T22:36:26.246Z,16.20
2022-11-29T22:38:53.610Z,16.70
2022-11-29T22:41:20.894Z,16.35
2022-11-29T22:43:48.139Z,15.88
2022-11-29T22:46:25.702Z,16.00
2022-11-29T22:48:55.410Z,15.95
2022-11-29T22:51:27.251Z,15.90
2022-11-29T22:53:55.518Z,17.55
2022-11-29T22:56:23.709Z,15.77
2022-11-29T22:58:51.438Z,19.77
2022-11-29T23:01:20.306Z,19.30
2022-11-29T23:03:48.560Z,16.77
2022-11-29T23:06:17.269Z,16.90
2022-11-29T23:08:45.319Z,19.15
2022-11-29T23:11:14.054Z,17.70
2022-11-29T23:13:41.948Z,19.10
2022-11-29T23:16:10.659Z,19.38
2022-11-29T23:18:39.199Z,18.38
2022-11-29T23:21:08.108Z,19.08
2022-11-29T23:23:35.682Z,19.35
2022-11-29T23:26:03.391Z,20.27
2022-11-29T23:28:31.276Z,21.00
2022-11-29T23:30:59.105Z,21.63
2022-11-29T23:33:26.862Z,19.48
2022-11-29T23:36:00.602Z,20.58
2022-11-29T23:38:27.803Z,20.10
2022-11-29T23:40:55.180Z,21.15
2022-11-29T23:43:22.603Z,21.98
2022-11-29T23:45:49.982Z,20.15
2022-11-29T23:48:17.383Z,23.15
2022-11-29T23:50:44.649Z,21.70
2022-11-29T23:53:15.628Z,20.65
2022-11-29T23:55:42.818Z,23.60
2022-11-29T23:58:10.847Z,23.33
